createdAt,value
2022-10-28T00:01:19.253Z,100805.94
2022-10-28T00:04:07.720Z,100808.22
2022-10-28T00:06:56.130Z,100800.56
2022-10-28T00:09:45.898Z,100813.63
2022-10-28T00:12:36.310Z,100814.44
2022-10-28T00:15:24.764Z,100818.41
2022-10-28T00:18:13.180Z,100815.72
2022-10-28T00:21:02.991Z,100795.38
2022-10-28T00:23:51.568Z,100813.81
2022-10-28T00:26:43.407Z,100829.56
2022-10-28T00:29:32.312Z,100823.34
2022-10-28T00:32:20.744Z,100829.16
2022-10-28T00:35:09.258Z,100826.69
2022-10-28T00:37:57.676Z,100832.06
2022-10-28T00:40:46.068Z,100831.84
2022-10-28T00:43:37.496Z,100832.06
2022-10-28T00:46:30.314Z,100790.59
2022-10-28T00:49:21.848Z,100840.59
2022-10-28T00:52:14.392Z,100840.16
2022-10-28T00:55:04.098Z,100828.56
2022-10-28T00:57:56.557Z,100830.00
2022-10-28T01:00:46.332Z,100828.16
2022-10-28T01:03:34.820Z,100831.25
2022-10-28T01:06:23.333Z,100824.59
2022-10-28T01:09:11.786Z,100824.81
2022-10-28T01:12:04.753Z,100804.69
2022-10-28T01:15:03.269Z,100824.59
2022-10-28T01:17:59.310Z,100811.56
2022-10-28T01:21:13.705Z,100811.34
2022-10-28T01:24:14.208Z,100810.31
2022-10-28T01:27:38.135Z,100810.94
2022-10-28T01:30:29.675Z,100804.91
2022-10-28T01:33:24.027Z,100814.66
2022-10-28T01:36:15.790Z,100810.72
2022-10-28T01:39:10.953Z,100809.66
2022-10-28T01:42:04.796Z,100809.28
2022-10-28T01:44:55.185Z,100789.78
2022-10-28T01:47:46.641Z,100817.13
2022-10-28T01:50:39.251Z,100812.56
2022-10-28T01:53:30.461Z,100817.13
2022-10-28T01:56:23.179Z,100816.69
2022-10-28T01:59:15.285Z,100819.59
2022-10-28T02:02:03.730Z,100815.88
2022-10-28T02:04:52.146Z,100808.63
2022-10-28T02:07:41.927Z,100803.47
2022-10-28T02:10:34.094Z,100804.28
2022-10-28T02:13:29.372Z,100803.25
2022-10-28T02:16:21.943Z,100808.66
2022-10-28T02:19:15.761Z,100808.25
2022-10-28T02:22:15.083Z,100800.16
2022-10-28T02:25:09.269Z,100793.94
2022-10-28T02:27:59.782Z,100802.84
2022-10-28T02:30:52.195Z,100808.84
2022-10-28T02:33:40.897Z,100805.97
2022-10-28T02:36:31.306Z,100808.63
2022-10-28T02:39:23.397Z,100805.53
2022-10-28T02:42:16.516Z,100791.84
2022-10-28T02:45:09.370Z,100798.69
2022-10-28T02:48:02.791Z,100778.59
2022-10-28T02:50:55.055Z,100769.84
2022-10-28T02:53:52.145Z,100782.31
2022-10-28T02:56:43.968Z,100780.44
2022-10-28T02:59:33.764Z,100774.00
2022-10-28T03:02:22.839Z,100739.78
2022-10-28T03:05:11.478Z,100765.28
2022-10-28T03:07:59.858Z,100768.19
2022-10-28T03:10:48.256Z,100750.56
2022-10-28T03:13:36.691Z,100747.44
2022-10-28T03:16:27.492Z,100752.41
2022-10-28T03:19:15.888Z,100746.59
2022-10-28T03:22:04.544Z,100749.09
2022-10-28T03:24:52.979Z,100760.50
2022-10-28T03:27:43.079Z,100766.94
2022-10-28T03:30:31.533Z,100775.25
2022-10-28T03:33:21.290Z,100776.09
2022-10-28T03:36:09.800Z,100771.09
2022-10-28T03:38:58.206Z,100774.19
2022-10-28T03:41:46.607Z,100777.31
2022-10-28T03:44:34.992Z,100752.84
2022-10-28T03:47:23.406Z,100752.44
2022-10-28T03:50:13.168Z,100745.59
2022-10-28T03:53:01.620Z,100740.81
2022-10-28T03:55:53.513Z,100742.03
2022-10-28T03:58:41.975Z,100733.28
2022-10-28T04:01:31.566Z,100725.03
2022-10-28T04:04:20.151Z,100728.31
2022-10-28T04:07:09.907Z,100691.03
2022-10-28T04:09:58.301Z,100716.88
2022-10-28T04:12:46.707Z,100707.75
2022-10-28T04:15:35.162Z,100698.78
2022-10-28T04:18:23.595Z,100703.81
2022-10-28T04:21:12.020Z,100693.00
2022-10-28T04:24:01.788Z,100661.88
2022-10-28T04:26:50.182Z,100690.25
2022-10-28T04:29:38.634Z,100687.56
2022-10-28T04:32:27.048Z,100691.53
2022-10-28T04:35:15.669Z,100688.69
2022-10-28T04:38:04.069Z,100702.78
2022-10-28T04:40:53.965Z,100702.78
2022-10-28T04:43:42.396Z,100695.53
2022-10-28T04:46:30.872Z,100703.47
2022-10-28T04:49:19.296Z,100673.03
2022-10-28T04:52:09.779Z,100719.63
2022-10-28T04:55:00.520Z,100710.75
2022-10-28T04:57:55.989Z,100726.28
2022-10-28T05:00:44.392Z,100729.63
2022-10-28T05:03:32.866Z,100712.22
2022-10-28T05:06:21.303Z,100712.41
2022-10-28T05:09:09.746Z,100721.56
2022-10-28T05:11:58.142Z,100715.53
2022-10-28T05:14:51.189Z,100706.03
2022-10-28T05:17:41.824Z,100733.59
2022-10-28T05:20:30.245Z,100718.44
2022-10-28T05:23:18.643Z,100723.00
2022-10-28T05:26:07.094Z,100725.72
2022-10-28T05:28:55.534Z,100721.34
2022-10-28T05:31:45.296Z,100707.28
2022-10-28T05:34:33.751Z,100711.00
2022-10-28T05:37:22.176Z,100710.19
2022-10-28T05:40:12.027Z,100705.63
2022-10-28T05:43:00.525Z,100710.81
2022-10-28T05:45:53.333Z,100708.75
2022-10-28T05:48:43.102Z,100713.31
2022-10-28T05:51:31.548Z,100704.78
2022-10-28T05:54:20.287Z,100721.38
2022-10-28T05:57:08.730Z,100724.69
2022-10-28T05:59:57.162Z,100722.41
2022-10-28T06:02:45.636Z,100567.38
2022-10-28T06:05:35.451Z,100718.03
2022-10-28T06:08:23.863Z,100721.53
2022-10-28T06:11:10.768Z,100709.75
2022-10-28T06:13:59.215Z,100724.03
2022-10-28T06:16:47.667Z,100718.03
2022-10-28T06:19:36.052Z,100728.81
2022-10-28T06:22:25.853Z,100717.63
2022-10-28T06:25:14.364Z,100720.94
2022-10-28T06:28:05.814Z,100732.13
2022-10-28T06:31:01.478Z,100738.69
2022-10-28T06:33:49.940Z,100742.44
2022-10-28T06:36:38.788Z,100730.38
2022-10-28T06:39:28.569Z,100743.44
2022-10-28T06:42:17.007Z,100728.75
2022-10-28T06:45:06.823Z,100746.63
2022-10-28T06:47:57.671Z,100758.03
2022-10-28T06:50:46.137Z,100752.84
2022-10-28T06:53:34.565Z,100756.38
2022-10-28T06:56:24.362Z,100765.91
2022-10-28T06:59:12.841Z,100771.09
2022-10-28T07:02:01.418Z,100768.81
2022-10-28T07:04:49.944Z,100777.47
2022-10-28T07:07:38.391Z,100778.16
2022-10-28T07:10:26.796Z,100770.66
2022-10-28T07:13:16.566Z,100785.59
2022-10-28T07:16:05.583Z,100780.22
2022-10-28T07:18:54.015Z,100786.22
2022-10-28T07:21:42.427Z,100778.78
2022-10-28T07:24:30.875Z,100792.03
2022-10-28T07:27:19.354Z,100771.31
2022-10-28T07:30:10.941Z,100780.22
2022-10-28T07:33:01.108Z,100793.31
2022-10-28T07:35:49.649Z,100777.94
2022-10-28T07:38:38.266Z,100789.59
2022-10-28T07:41:26.882Z,100789.78
2022-10-28T07:44:15.426Z,100754.13
2022-10-28T07:47:05.322Z,100785.41
2022-10-28T07:49:54.539Z,100787.28
2022-10-28T07:52:43.076Z,100790.38
2022-10-28T07:55:31.501Z,100779.19
2022-10-28T07:58:19.924Z,100796.41
2022-10-28T08:01:09.923Z,100788.13
2022-10-28T08:03:59.805Z,100785.81
2022-10-28T08:06:48.315Z,100797.03
2022-10-28T08:09:36.809Z,100792.88
2022-10-28T08:12:25.236Z,100802.41
2022-10-28T08:15:15.521Z,100798.88
2022-10-28T08:18:03.966Z,100795.56
2022-10-28T08:20:53.865Z,100797.84
2022-10-28T08:23:46.331Z,100804.28
2022-10-28T08:26:34.759Z,100802.22
2022-10-28T08:29:27.672Z,100797.41
2022-10-28T08:32:18.488Z,100788.31
2022-10-28T08:35:07.756Z,100794.50
2022-10-28T08:37:57.678Z,100786.00
2022-10-28T08:40:56.575Z,100796.59
2022-10-28T08:43:58.112Z,100773.75
2022-10-28T08:46:58.663Z,100790.53
2022-10-28T08:49:51.223Z,100802.75
2022-10-28T08:52:44.070Z,100800.00
2022-10-28T08:55:36.519Z,100794.81
2022-10-28T08:58:27.285Z,100800.16
2022-10-28T09:01:23.918Z,100787.50
2022-10-28T09:04:19.658Z,100807.78
2022-10-28T09:07:12.986Z,100807.31
2022-10-28T09:10:01.428Z,100794.53
2022-10-28T09:12:56.142Z,100796.78
2022-10-28T09:15:50.915Z,100792.25
2022-10-28T09:18:51.701Z,100772.56
2022-10-28T09:21:46.455Z,100763.22
2022-10-28T09:24:43.135Z,100760.34
2022-10-28T09:27:45.616Z,100770.81
2022-10-28T09:30:42.922Z,100765.75
2022-10-28T09:33:44.061Z,100772.59
2022-10-28T09:36:35.067Z,100783.41
2022-10-28T09:39:28.053Z,100775.28
2022-10-28T09:42:20.374Z,100750.69
2022-10-28T09:45:14.107Z,100778.75
2022-10-28T09:48:07.451Z,100755.66
2022-10-28T09:50:57.683Z,100804.19
2022-10-28T09:53:49.719Z,100807.84
2022-10-28T09:56:38.410Z,100800.13
2022-10-28T09:59:26.874Z,100785.56
2022-10-28T10:02:27.251Z,100783.31
2022-10-28T10:05:18.822Z,100792.34
2022-10-28T10:08:08.073Z,100806.94
2022-10-28T10:10:59.461Z,100799.78
2022-10-28T10:13:48.198Z,100789.56
2022-10-28T10:16:40.903Z,100795.25
2022-10-28T10:19:29.578Z,100785.09
2022-10-28T10:22:30.861Z,100791.88
2022-10-28T10:25:26.149Z,100751.28
2022-10-28T10:28:16.798Z,100794.47
2022-10-28T10:31:06.820Z,100796.88
2022-10-28T10:33:57.584Z,100800.06
2022-10-28T10:36:50.409Z,100786.84
2022-10-28T10:39:40.163Z,100781.56
2022-10-28T10:42:28.711Z,100788.84
2022-10-28T10:45:23.303Z,100779.38
2022-10-28T10:48:15.849Z,100784.47
2022-10-28T10:51:09.275Z,100780.34
2022-10-28T10:54:00.740Z,100781.09
2022-10-28T10:56:50.607Z,100784.72
2022-10-28T10:59:40.965Z,100744.13
2022-10-28T11:02:34.609Z,100787.31
2022-10-28T11:05:27.196Z,100786.72
2022-10-28T11:08:34.438Z,100747.00
2022-10-28T11:11:24.520Z,100774.16
2022-10-28T11:14:24.298Z,100754.63
2022-10-28T11:17:25.200Z,100765.91
2022-10-28T11:20:25.336Z,100761.44
2022-10-28T11:23:26.016Z,100752.94
2022-10-28T11:26:15.399Z,100749.78
2022-10-28T11:29:09.979Z,100740.97
2022-10-28T11:32:14.059Z,100752.97
2022-10-28T11:35:18.319Z,100749.31
2022-10-28T11:38:17.881Z,100744.41
2022-10-28T11:41:15.497Z,100743.97
2022-10-28T11:44:09.609Z,100740.41
2022-10-28T11:47:06.330Z,100746.94
2022-10-28T11:50:09.191Z,100732.41
2022-10-28T11:53:32.985Z,100742.69
2022-10-28T11:56:31.055Z,100744.59
2022-10-28T11:59:34.858Z,100736.53
2022-10-28T12:02:39.638Z,100680.28
2022-10-28T12:05:31.798Z,100739.50
2022-10-28T12:08:33.457Z,100744.41
2022-10-28T12:11:27.328Z,100751.91
2022-10-28T12:14:23.886Z,100741.19
2022-10-28T12:17:18.006Z,100745.53
2022-10-28T12:20:12.600Z,100721.03
2022-10-28T12:23:03.105Z,100735.41
2022-10-28T12:25:54.771Z,100732.25
2022-10-28T12:28:45.818Z,100724.66
2022-10-28T12:31:39.050Z,100714.63
2022-10-28T12:34:33.598Z,100713.31
2022-10-28T12:37:25.546Z,100707.09
2022-10-28T12:40:18.399Z,100713.94
2022-10-28T12:43:10.601Z,100690.91
2022-10-28T12:45:59.314Z,100706.88
2022-10-28T12:48:49.955Z,100700.34
2022-10-28T12:51:40.332Z,100702.84
2022-10-28T12:54:34.478Z,100687.31
2022-10-28T12:57:24.467Z,100695.25
2022-10-28T13:00:18.240Z,100704.84
2022-10-28T13:03:10.715Z,100679.38
2022-10-28T13:06:23.185Z,100695.81
2022-10-28T13:09:26.330Z,100662.34
2022-10-28T13:12:49.595Z,100691.19
2022-10-28T13:16:10.485Z,100698.34
2022-10-28T13:19:15.815Z,100683.53
2022-10-28T13:25:41.935Z,100685.19
2022-10-28T13:28:34.295Z,100692.59
2022-10-28T13:31:22.742Z,100675.59
2022-10-28T13:34:12.081Z,100692.03
2022-10-28T13:37:03.287Z,100694.50
2022-10-28T13:39:51.791Z,100698.34
2022-10-28T13:42:49.433Z,100697.53
2022-10-28T13:45:51.408Z,100705.72
2022-10-28T13:48:49.185Z,100694.47
2022-10-28T13:51:47.585Z,100676.41
2022-10-28T13:54:55.263Z,100702.41
2022-10-28T13:57:45.589Z,100707.06
2022-10-28T14:00:36.411Z,100693.66
2022-10-28T14:03:27.029Z,100695.56
2022-10-28T14:06:31.411Z,100693.09
2022-10-28T14:09:22.184Z,100693.09
2022-10-28T14:12:18.455Z,100700.19
2022-10-28T14:15:18.747Z,100691.47
2022-10-28T14:18:42.115Z,100688.44
2022-10-28T14:21:44.458Z,100684.56
2022-10-28T14:24:33.958Z,100676.91
2022-10-28T14:27:29.987Z,100694.13
2022-10-28T14:30:22.796Z,100684.84
2022-10-28T14:33:23.715Z,100690.84
2022-10-28T14:36:24.387Z,100688.34
2022-10-28T14:39:36.658Z,100689.69
2022-10-28T14:42:37.942Z,100683.66
2022-10-28T14:45:32.741Z,100688.31
2022-10-28T14:48:41.434Z,100676.03
2022-10-28T14:51:37.936Z,100666.47
2022-10-28T14:54:40.591Z,100687.78
2022-10-28T14:57:33.636Z,100682.00
2022-10-28T15:00:25.843Z,100653.22
2022-10-28T15:03:14.589Z,100674.56
2022-10-28T15:06:03.466Z,100672.06
2022-10-28T15:08:52.076Z,100676.66
2022-10-28T15:11:43.736Z,100669.25
2022-10-28T15:14:34.791Z,100665.41
2022-10-28T15:17:24.904Z,100671.66
2022-10-28T15:20:21.912Z,100668.53
2022-10-28T15:23:16.353Z,100669.00
2022-10-28T15:26:08.921Z,100677.66
2022-10-28T15:28:59.275Z,100665.31
2022-10-28T15:32:20.250Z,100660.09
2022-10-28T15:35:38.027Z,100655.94
2022-10-28T15:38:35.804Z,100659.66
2022-10-28T15:41:42.338Z,100667.16
2022-10-28T15:44:37.878Z,100678.19
2022-10-28T15:47:31.750Z,100672.56
2022-10-28T15:50:31.655Z,100662.34
2022-10-28T15:53:39.526Z,100663.75
2022-10-28T15:56:28.442Z,100668.47
2022-10-28T15:59:21.290Z,100678.44
2022-10-28T16:05:54.276Z,100684.69
2022-10-28T16:08:42.835Z,100668.88
2022-10-28T16:11:31.736Z,100676.06
2022-10-28T16:14:36.426Z,100685.31
2022-10-28T16:17:27.075Z,100684.03
2022-10-28T16:20:20.571Z,100682.16
2022-10-28T16:23:15.434Z,100688.59
2022-10-28T16:26:03.951Z,100692.22
2022-10-28T16:28:52.561Z,100685.63
2022-10-28T16:31:42.114Z,100687.81
2022-10-28T16:34:30.629Z,100692.84
2022-10-28T16:37:22.859Z,100686.38
2022-10-28T16:40:30.958Z,100691.75
2022-10-28T16:43:22.370Z,100685.03
2022-10-28T16:46:12.449Z,100676.91
2022-10-28T16:49:00.979Z,100690.84
2022-10-28T16:51:49.410Z,100693.94
2022-10-28T16:54:39.190Z,100691.94
2022-10-28T16:57:27.972Z,100694.78
2022-10-28T17:00:16.907Z,100707.69
2022-10-28T17:03:05.597Z,100695.75
2022-10-28T17:05:54.023Z,100692.13
2022-10-28T17:09:02.431Z,100708.03
2022-10-28T17:11:52.267Z,100711.94
2022-10-28T17:14:40.698Z,100711.22
2022-10-28T17:17:29.150Z,100716.19
2022-10-28T17:20:17.830Z,100693.44
2022-10-28T17:23:06.763Z,100704.63
2022-10-28T17:25:58.914Z,100720.41
2022-10-28T17:28:53.115Z,100722.66
2022-10-28T17:31:41.624Z,100721.53
2022-10-28T17:34:30.110Z,100726.63
2022-10-28T17:37:18.658Z,100721.41
2022-10-28T17:40:08.972Z,100733.78
2022-10-28T17:42:58.859Z,100734.13
2022-10-28T17:45:48.668Z,100733.03
2022-10-28T17:48:37.226Z,100743.66
2022-10-28T17:51:25.840Z,100745.97
2022-10-28T17:54:14.313Z,100754.22
2022-10-28T17:57:02.750Z,100765.81
2022-10-28T17:59:51.250Z,100740.72
2022-10-28T18:02:41.225Z,100753.28
2022-10-28T18:05:29.710Z,100750.88
2022-10-28T18:08:18.434Z,100746.31
2022-10-28T18:11:07.639Z,100752.19
2022-10-28T18:13:56.318Z,100738.97
2022-10-28T18:16:46.134Z,100752.13
2022-10-28T18:19:35.951Z,100745.88
2022-10-28T18:25:17.761Z,100740.09
2022-10-28T18:28:07.023Z,100747.19
2022-10-28T18:30:55.496Z,100752.19
2022-10-28T18:33:44.669Z,100724.78
2022-10-28T18:36:35.963Z,100747.59
2022-10-28T18:39:24.465Z,100743.84
2022-10-28T18:42:13.507Z,100746.16
2022-10-28T18:45:02.793Z,100747.06
2022-10-28T18:47:51.302Z,100748.94
2022-10-28T18:50:39.854Z,100737.13
2022-10-28T18:53:29.848Z,100750.94
2022-10-28T18:56:20.563Z,100741.63
2022-10-28T18:59:09.068Z,100752.56
2022-10-28T19:01:57.562Z,100749.97
2022-10-28T19:04:46.173Z,100759.38
2022-10-28T19:07:34.647Z,100750.59
2022-10-28T19:10:24.527Z,100747.81
2022-10-28T19:13:13.012Z,100753.50
2022-10-28T19:16:01.652Z,100755.41
2022-10-28T19:18:50.191Z,100748.41
2022-10-28T19:21:38.630Z,100765.88
2022-10-28T19:24:27.648Z,100757.84
2022-10-28T19:27:17.472Z,100765.28
2022-10-28T19:30:09.239Z,100753.47
2022-10-28T19:33:00.964Z,100763.53
2022-10-28T19:35:49.418Z,100760.47
2022-10-28T19:38:39.419Z,100764.13
2022-10-28T19:41:29.103Z,100753.97
2022-10-28T19:44:18.912Z,100749.41
2022-10-28T19:47:08.070Z,100752.34
2022-10-28T19:49:56.619Z,100756.06
2022-10-28T19:52:45.159Z,100756.06
2022-10-28T19:55:33.652Z,100753.97
2022-10-28T19:58:22.162Z,100751.06
2022-10-28T20:01:12.376Z,100758.34
2022-10-28T20:04:01.010Z,100742.09
2022-10-28T20:06:49.418Z,100765.47
2022-10-28T20:09:37.843Z,100772.16
2022-10-28T20:12:27.711Z,100763.97
2022-10-28T20:15:16.421Z,100762.59
2022-10-28T20:18:06.457Z,100774.19
2022-10-28T20:20:54.911Z,100771.84
2022-10-28T20:23:44.248Z,100780.59
2022-10-28T20:26:34.384Z,100779.81
2022-10-28T20:29:22.819Z,100788.19
2022-10-28T20:32:11.243Z,100794.03
2022-10-28T20:35:01.977Z,100790.53
2022-10-28T20:37:54.511Z,100797.19
2022-10-28T20:40:43.354Z,100801.63
2022-10-28T20:43:31.969Z,100810.84
2022-10-28T20:46:20.968Z,100810.44
2022-10-28T20:49:10.514Z,100780.53
2022-10-28T20:52:00.813Z,100799.28
2022-10-28T20:54:49.249Z,100805.25
2022-10-28T20:57:37.687Z,100800.22
2022-10-28T21:00:26.105Z,100800.03
2022-10-28T21:03:14.696Z,100802.72
2022-10-28T21:06:03.542Z,100806.22
2022-10-28T21:08:54.486Z,100789.06
2022-10-28T21:11:45.258Z,100804.13
2022-10-28T21:14:33.790Z,100801.16
2022-10-28T21:17:22.199Z,100614.50
2022-10-28T21:20:11.559Z,100797.91
2022-10-28T21:23:00.513Z,100791.94
2022-10-28T21:25:54.382Z,100753.72
2022-10-28T21:28:42.924Z,100817.88
2022-10-28T21:31:31.379Z,100827.47
2022-10-28T21:34:19.776Z,100818.75
2022-10-28T21:37:08.187Z,100822.38
2022-10-28T21:40:00.897Z,100828.44
2022-10-28T21:42:51.283Z,100832.19
2022-10-28T21:45:39.694Z,100839.31
2022-10-28T21:48:28.710Z,100826.94
2022-10-28T21:51:17.873Z,100857.84
2022-10-28T21:54:06.490Z,100835.25
2022-10-28T21:56:54.896Z,100853.34
2022-10-28T21:59:44.682Z,100852.94
2022-10-28T22:02:33.227Z,100859.38
2022-10-28T22:05:21.765Z,100869.34
2022-10-28T22:08:10.169Z,100867.69
2022-10-28T22:11:00.197Z,100860.19
2022-10-28T22:13:49.435Z,100859.13
2022-10-28T22:16:39.226Z,100868.31
2022-10-28T22:19:27.660Z,100862.94
2022-10-28T22:22:16.107Z,100857.78
2022-10-28T22:25:07.745Z,100877.28
2022-10-28T22:27:58.814Z,100870.47
2022-10-28T22:30:47.246Z,100843.47
2022-10-28T22:33:37.617Z,100873.13
2022-10-28T22:36:27.653Z,100883.28
2022-10-28T22:39:16.065Z,100882.50
2022-10-28T22:42:04.710Z,100878.31
2022-10-28T22:44:53.151Z,100871.69
2022-10-28T22:47:41.568Z,100862.75
2022-10-28T22:50:31.340Z,100862.38
2022-10-28T22:53:19.975Z,100859.03
2022-10-28T22:56:09.816Z,100860.28
2022-10-28T22:58:59.629Z,100827.47
2022-10-28T23:01:48.401Z,100851.56
2022-10-28T23:04:37.087Z,100844.13
2022-10-28T23:07:26.857Z,100853.63
2022-10-28T23:10:15.368Z,100852.59
2022-10-28T23:13:03.863Z,100860.69
2022-10-28T23:15:53.489Z,100859.66
2022-10-28T23:18:42.898Z,100861.91
2022-10-28T23:21:31.399Z,100868.38
2022-10-28T23:24:21.218Z,100864.03
2022-10-28T23:27:09.666Z,100851.78
2022-10-28T23:29:58.108Z,100853.63
2022-10-28T23:32:47.228Z,100832.91
2022-10-28T23:35:35.654Z,100845.97
2022-10-28T23:38:24.458Z,100848.88
2022-10-28T23:41:18.488Z,100846.59
2022-10-28T23:44:07.474Z,100860.50
2022-10-28T23:46:55.897Z,100861.53
2022-10-28T23:49:44.290Z,100860.50
2022-10-28T23:52:32.701Z,100852.19
2022-10-28T23:55:21.170Z,100842.25
2022-10-28T23:58:10.938Z,100829.19
